Time;durP1;ratioP1;P1;durP2;ratioP2;P2;SDS_P1;SDS_P2;PMS_P1;PMS_P2;Temp;Humidity;BMP_temperature;BMP_pressure;BME280_temperature;BME280_humidity;BME280_pressure;Samples;Min_cycle;Max_cycle;Signal;HPM_P1;HPM_P2
2021/09/10 00:01:01;;;;;;;;;;;15.40;99.90;;;;;;5089410;28;19908;-71
2021/09/10 00:03:27;;;;;;;;;;;15.40;99.90;;;;;;5086435;28;19908;-70
2021/09/10 00:05:52;;;;;;;;;;;15.30;99.90;;;;;;5091775;28;19908;-71
2021/09/10 00:08:18;;;;;;;;;;;15.30;99.90;;;;;;5091588;28;19985;-71
2021/09/10 00:10:43;;;;;;;;;;;15.30;99.90;;;;;;5092017;28;19930;-70
2021/09/10 00:13:09;;;;;;;;;;;15.30;99.90;;;;;;5091808;28;19912;-71
2021/09/10 00:15:34;;;;;;;;;;;15.30;99.90;;;;;;5085729;28;19991;-70
2021/09/10 00:18:00;;;;;;;;;;;15.20;99.90;;;;;;5087877;28;19954;-70
2021/09/10 00:20:25;;;;;;;;;;;15.30;99.90;;;;;;5088318;28;20304;-70
2021/09/10 00:22:51;;;;;;;;;;;15.40;99.90;;;;;;5088778;28;19912;-70
2021/09/10 00:25:16;;;;;;;;;;;15.40;99.90;;;;;;5088642;28;19908;-70
2021/09/10 00:27:42;;;;;;;;;;;15.50;99.90;;;;;;5088275;28;20155;-71
2021/09/10 00:30:08;;;;;;;;;;;15.40;99.90;;;;;;5088519;28;20057;-71
2021/09/10 00:32:33;;;;;;;;;;;15.40;99.90;;;;;;5090938;28;20369;-70
2021/09/10 00:34:59;;;;;;;;;;;15.30;99.90;;;;;;5091550;28;20003;-71
2021/09/10 00:37:24;;;;;;;;;;;15.30;99.90;;;;;;5091195;28;19908;-71
2021/09/10 00:39:50;;;;;;;;;;;15.40;99.90;;;;;;5091697;28;19908;-71
2021/09/10 00:42:15;;;;;;;;;;;15.40;99.90;;;;;;5091518;28;19947;-71
2021/09/10 00:44:41;;;;;;;;;;;15.40;99.90;;;;;;5089659;28;20345;-71
2021/09/10 00:47:07;;;;;;;;;;;15.50;99.90;;;;;;5105364;28;19923;-71
2021/09/10 00:49:32;;;;;;;;;;;15.50;99.90;;;;;;5111302;28;20033;-70
2021/09/10 00:51:58;;;;;;;;;;;15.30;99.90;;;;;;5111619;28;19912;-71
2021/09/10 00:54:24;;;;;;;;;;;15.20;99.90;;;;;;5111697;28;19907;-71
2021/09/10 00:56:50;;;;;;;;;;;15.20;99.90;;;;;;5111589;28;19908;-70
2021/09/10 00:59:15;;;;;;;;;;;15.10;99.90;;;;;;5111687;28;19914;-71
2021/09/10 01:01:41;;;;;;;;;;;15.00;99.90;;;;;;5111543;28;19995;-70
2021/09/10 01:04:07;;;;;;;;;;;14.90;99.90;;;;;;5111541;28;20340;-70
2021/09/10 01:06:33;;;;;;;;;;;14.90;99.90;;;;;;5111175;28;19933;-70
2021/09/10 01:08:59;;;;;;;;;;;14.80;99.90;;;;;;5111833;28;19918;-70
2021/09/10 01:11:25;;;;;;;;;;;14.80;99.90;;;;;;5111608;28;19954;-70
2021/09/10 01:13:52;;;;;;;;;;;14.80;99.90;;;;;;5108238;28;19912;-71
2021/09/10 01:16:17;;;;;;;;;;;14.70;99.90;;;;;;5110983;28;19991;-70
2021/09/10 01:18:43;;;;;;;;;;;14.70;99.90;;;;;;5110163;28;19947;-70
2021/09/10 01:21:09;;;;;;;;;;;14.70;99.90;;;;;;5111442;28;20399;-70
2021/09/10 01:23:34;;;;;;;;;;;14.70;99.90;;;;;;5111409;28;19908;-69
2021/09/10 01:26:00;;;;;;;;;;;14.70;99.90;;;;;;5111328;28;19908;-70
2021/09/10 01:28:25;;;;;;;;;;;14.70;99.90;;;;;;5111309;28;19908;-70
2021/09/10 01:30:51;;;;;;;;;;;14.80;99.90;;;;;;5111449;28;20292;-70
2021/09/10 01:33:16;;;;;;;;;;;14.80;99.90;;;;;;5111103;28;19959;-70
2021/09/10 01:35:42;;;;;;;;;;;14.90;99.90;;;;;;5111227;28;19912;-70
2021/09/10 01:38:08;;;;;;;;;;;14.90;99.90;;;;;;5111090;28;19912;-70
2021/09/10 01:40:34;;;;;;;;;;;15.00;99.90;;;;;;5111265;28;19915;-70
2021/09/10 01:43:00;;;;;;;;;;;15.10;99.90;;;;;;5111431;28;19908;-71
2021/09/10 01:45:25;;;;;;;;;;;15.10;99.90;;;;;;5108180;28;19907;-71
2021/09/10 01:47:50;;;;;;;;;;;15.20;99.90;;;;;;5111982;28;19916;-69
2021/09/10 01:50:17;;;;;;;;;;;15.20;99.90;;;;;;5112076;28;19908;-71
2021/09/10 01:52:43;;;;;;;;;;;15.20;99.90;;;;;;5110965;28;19956;-70
2021/09/10 01:55:09;;;;;;;;;;;15.30;99.90;;;;;;5111201;28;20380;-71
2021/09/10 01:57:35;;;;;;;;;;;15.30;99.90;;;;;;5111480;28;19914;-71
2021/09/10 02:00:00;;;;;;;;;;;15.40;99.90;;;;;;5112573;28;19907;-71
2021/09/10 02:02:26;;;;;;;;;;;15.40;99.90;;;;;;5113615;28;19986;-71
2021/09/10 02:04:51;;;;;;;;;;;15.40;99.90;;;;;;5115096;28;19907;-71
2021/09/10 02:07:17;;;;;;;;;;;15.30;99.90;;;;;;5114757;28;20330;-70
2021/09/10 02:09:42;;;;;;;;;;;15.20;99.90;;;;;;5115030;28;20401;-71
2021/09/10 02:12:08;;;;;;;;;;;15.10;99.90;;;;;;5114842;28;20371;-71
2021/09/10 02:14:34;;;;;;;;;;;15.10;99.90;;;;;;5111529;28;19933;-71
2021/09/10 02:17:00;;;;;;;;;;;15.00;99.90;;;;;;5114495;28;20445;-70
2021/09/10 02:19:26;;;;;;;;;;;15.00;99.90;;;;;;5114756;28;19912;-71
2021/09/10 02:21:51;;;;;;;;;;;15.00;99.90;;;;;;5114645;28;19907;-71
2021/09/10 02:24:17;;;;;;;;;;;15.00;99.90;;;;;;5114732;28;20318;-71
2021/09/10 02:26:43;;;;;;;;;;;15.00;99.90;;;;;;5114314;28;19911;-71
2021/09/10 02:29:09;;;;;;;;;;;14.90;99.90;;;;;;5114603;28;19953;-71
2021/09/10 02:31:34;;;;;;;;;;;14.90;99.90;;;;;;5114317;28;19953;-70
2021/09/10 02:34:00;;;;;;;;;;;14.90;99.90;;;;;;5114388;28;19912;-70
2021/09/10 02:36:25;;;;;;;;;;;14.90;99.90;;;;;;5114055;28;19915;-71
2021/09/10 02:38:51;;;;;;;;;;;15.00;99.90;;;;;;5114319;28;20393;-71
2021/09/10 02:41:16;;;;;;;;;;;15.00;99.90;;;;;;5114459;28;19907;-71
2021/09/10 02:43:42;;;;;;;;;;;14.90;99.90;;;;;;5110981;28;19907;-71
2021/09/10 02:46:08;;;;;;;;;;;14.90;99.90;;;;;;5113539;28;19920;-71
2021/09/10 02:48:33;;;;;;;;;;;14.90;99.90;;;;;;5114109;28;20002;-71
2021/09/10 02:50:59;;;;;;;;;;;14.90;99.90;;;;;;5114154;28;19978;-70
2021/09/10 02:53:25;;;;;;;;;;;14.80;99.90;;;;;;5114034;28;19916;-71
2021/09/10 02:55:51;;;;;;;;;;;14.70;99.90;;;;;;5114043;28;19955;-70
2021/09/10 02:58:16;;;;;;;;;;;14.60;99.90;;;;;;5113622;28;19930;-71
2021/09/10 03:00:42;;;;;;;;;;;14.60;99.90;;;;;;5113869;28;19969;-71
2021/09/10 03:03:07;;;;;;;;;;;14.60;99.90;;;;;;5113554;28;20320;-71
2021/09/10 03:05:32;;;;;;;;;;;14.50;99.90;;;;;;5113786;28;20387;-71
2021/09/10 03:07:58;;;;;;;;;;;14.50;99.90;;;;;;5113250;28;19964;-71
2021/09/10 03:10:24;;;;;;;;;;;14.40;99.90;;;;;;5113619;28;19931;-71
2021/09/10 03:12:49;;;;;;;;;;;14.30;99.90;;;;;;5113282;28;19912;-71
2021/09/10 03:15:15;;;;;;;;;;;14.30;99.90;;;;;;5109950;28;20353;-70
2021/09/10 03:17:41;;;;;;;;;;;14.20;99.90;;;;;;5112774;28;19908;-70
2021/09/10 03:20:08;;;;;;;;;;;14.10;99.90;;;;;;5113426;28;19936;-70
2021/09/10 03:22:33;;;;;;;;;;;14.00;99.90;;;;;;5113722;28;20388;-70
2021/09/10 03:24:59;;;;;;;;;;;14.00;99.90;;;;;;5113542;28;19908;-70
2021/09/10 03:27:24;;;;;;;;;;;14.00;99.90;;;;;;5113043;28;20201;-70
2021/09/10 03:29:50;;;;;;;;;;;13.90;99.90;;;;;;5113180;28;19908;-70
2021/09/10 03:32:15;;;;;;;;;;;13.90;99.90;;;;;;5112884;28;19912;-69
2021/09/10 03:34:41;;;;;;;;;;;13.80;99.90;;;;;;5113340;28;20361;-71
2021/09/10 03:37:07;;;;;;;;;;;13.70;99.90;;;;;;5112904;28;19915;-71
2021/09/10 03:39:33;;;;;;;;;;;13.60;99.90;;;;;;5113042;28;19914;-70
2021/09/10 03:41:58;;;;;;;;;;;13.60;99.90;;;;;;5113070;28;19912;-70
2021/09/10 03:44:24;;;;;;;;;;;13.70;99.90;;;;;;5109756;28;19939;-70
2021/09/10 03:46:49;;;;;;;;;;;13.60;99.90;;;;;;5112195;28;19915;-70
2021/09/10 03:49:15;;;;;;;;;;;13.50;99.90;;;;;;5113065;28;19915;-70
2021/09/10 03:51:40;;;;;;;;;;;13.40;99.90;;;;;;5112834;28;19908;-70
2021/09/10 03:54:06;;;;;;;;;;;13.30;99.90;;;;;;5112846;28;20002;-69
2021/09/10 03:56:31;;;;;;;;;;;13.20;99.90;;;;;;5112548;28;19908;-70
2021/09/10 03:58:56;;;;;;;;;;;13.10;99.90;;;;;;5112795;28;19946;-70
2021/09/10 04:01:23;;;;;;;;;;;13.20;99.90;;;;;;5112475;28;19912;-70
2021/09/10 04:03:49;;;;;;;;;;;13.30;99.90;;;;;;5112773;28;19911;-70
2021/09/10 04:06:14;;;;;;;;;;;13.20;99.90;;;;;;5112336;28;20261;-70
2021/09/10 04:08:41;;;;;;;;;;;13.20;99.90;;;;;;5112680;28;19907;-71
2021/09/10 04:11:06;;;;;;;;;;;13.20;99.90;;;;;;5112452;28;19915;-70
2021/09/10 04:13:32;;;;;;;;;;;13.10;99.90;;;;;;5111616;28;19912;-70
2021/09/10 04:15:57;;;;;;;;;;;13.00;99.90;;;;;;5109807;28;20289;-70
2021/09/10 04:18:23;;;;;;;;;;;12.90;99.90;;;;;;5112047;28;19908;-70
2021/09/10 04:20:48;;;;;;;;;;;12.90;99.90;;;;;;5112339;28;19940;-69
2021/09/10 04:23:14;;;;;;;;;;;12.80;99.90;;;;;;5112406;28;20382;-70
2021/09/10 04:25:39;;;;;;;;;;;12.80;99.90;;;;;;5111880;28;19953;-70
2021/09/10 04:28:07;;;;;;;;;;;12.80;99.90;;;;;;5111961;28;19907;-70
2021/09/10 04:30:32;;;;;;;;;;;12.70;99.90;;;;;;5112136;28;19911;-70
2021/09/10 04:32:58;;;;;;;;;;;12.60;99.90;;;;;;5112160;28;19916;-70
2021/09/10 04:35:23;;;;;;;;;;;12.60;99.90;;;;;;5112369;28;19957;-70
2021/09/10 04:37:49;;;;;;;;;;;12.60;99.90;;;;;;5111739;28;19915;-70
2021/09/10 04:40:14;;;;;;;;;;;12.60;99.90;;;;;;5112078;28;19908;-70
2021/09/10 04:42:40;;;;;;;;;;;12.60;99.90;;;;;;5111988;28;19912;-70
2021/09/10 04:45:06;;;;;;;;;;;12.60;99.90;;;;;;5108444;28;20457;-70
2021/09/10 04:47:31;;;;;;;;;;;12.60;99.90;;;;;;5111478;28;19966;-70
2021/09/10 04:49:57;;;;;;;;;;;12.60;99.90;;;;;;5112001;28;19914;-71
2021/09/10 04:52:23;;;;;;;;;;;12.50;99.90;;;;;;5111767;28;20003;-70
2021/09/10 04:54:48;;;;;;;;;;;12.60;99.90;;;;;;5112268;28;20372;-70
2021/09/10 04:57:14;;;;;;;;;;;12.50;99.90;;;;;;5111541;28;19961;-71
2021/09/10 04:59:39;;;;;;;;;;;12.60;99.90;;;;;;5111672;28;19908;-70
2021/09/10 05:02:05;;;;;;;;;;;12.60;99.90;;;;;;5111744;28;20268;-70
2021/09/10 05:04:30;;;;;;;;;;;12.50;99.90;;;;;;5111940;28;19951;-71
2021/09/10 05:06:56;;;;;;;;;;;12.50;99.90;;;;;;5111450;28;19944;-70
2021/09/10 05:09:22;;;;;;;;;;;12.60;99.90;;;;;;5111769;28;19954;-70
2021/09/10 05:11:47;;;;;;;;;;;12.60;99.90;;;;;;5111533;28;19907;-70
2021/09/10 05:14:14;;;;;;;;;;;12.60;99.90;;;;;;5108262;28;20368;-70
2021/09/10 05:16:39;;;;;;;;;;;12.60;99.90;;;;;;5110968;28;19908;-70
2021/09/10 05:19:05;;;;;;;;;;;12.60;99.90;;;;;;5111855;28;20401;-70
2021/09/10 05:21:31;;;;;;;;;;;12.60;99.90;;;;;;5111509;28;19908;-70
2021/09/10 05:23:57;;;;;;;;;;;12.80;99.90;;;;;;5111611;28;19914;-70
2021/09/10 05:26:22;;;;;;;;;;;13.00;99.90;;;;;;5111268;28;19907;-69
2021/09/10 05:28:48;;;;;;;;;;;13.10;99.90;;;;;;5111413;28;19912;-70
2021/09/10 05:31:13;;;;;;;;;;;13.20;99.90;;;;;;5111592;28;20200;-71
2021/09/10 05:33:39;;;;;;;;;;;13.30;99.90;;;;;;5111419;28;19912;-70
2021/09/10 05:36:04;;;;;;;;;;;13.40;99.90;;;;;;5111108;28;19951;-70
2021/09/10 05:38:30;;;;;;;;;;;13.50;99.90;;;;;;5115150;28;19914;-70
2021/09/10 05:40:55;;;;;;;;;;;13.60;99.90;;;;;;5115394;28;19915;-71
2021/09/10 05:43:21;;;;;;;;;;;13.80;99.90;;;;;;5115155;28;20343;-70
2021/09/10 05:45:47;;;;;;;;;;;13.90;99.90;;;;;;5111603;28;19911;-71
2021/09/10 05:48:12;;;;;;;;;;;14.10;99.90;;;;;;5115154;28;20360;-71
2021/09/10 05:50:38;;;;;;;;;;;14.30;99.90;;;;;;5115633;28;20353;-71
2021/09/10 05:53:05;;;;;;;;;;;14.40;99.90;;;;;;5115278;28;19912;-71
2021/09/10 05:55:31;;;;;;;;;;;14.60;99.90;;;;;;5114380;28;20025;-70
2021/09/10 05:57:56;;;;;;;;;;;14.70;99.90;;;;;;5114351;28;19908;-71
2021/09/10 06:00:22;;;;;;;;;;;14.90;99.90;;;;;;5115008;28;19915;-71
2021/09/10 06:02:47;;;;;;;;;;;15.00;99.90;;;;;;5114864;28;20385;-70
2021/09/10 06:05:13;;;;;;;;;;;15.10;99.90;;;;;;5114586;28;20249;-70
2021/09/10 06:07:38;;;;;;;;;;;15.20;99.90;;;;;;5114478;28;19918;-71
2021/09/10 06:10:04;;;;;;;;;;;15.40;99.90;;;;;;5114768;28;20372;-71
2021/09/10 06:12:29;;;;;;;;;;;15.50;99.90;;;;;;5114729;28;19990;-73
2021/09/10 06:14:55;;;;;;;;;;;15.60;99.90;;;;;;5111370;28;20356;-70
2021/09/10 06:17:20;;;;;;;;;;;15.60;99.90;;;;;;5114353;28;20397;-71
2021/09/10 06:19:46;;;;;;;;;;;15.70;99.90;;;;;;5114735;28;19915;-71
2021/09/10 06:22:13;;;;;;;;;;;15.60;99.90;;;;;;5114646;28;19976;-71
2021/09/10 06:24:39;;;;;;;;;;;15.60;99.90;;;;;;5114755;28;19919;-71
2021/09/10 06:27:04;;;;;;;;;;;15.70;99.90;;;;;;5114227;28;19908;-71
2021/09/10 06:29:29;;;;;;;;;;;15.70;99.90;;;;;;5114364;28;19915;-71
2021/09/10 06:31:55;;;;;;;;;;;15.60;99.90;;;;;;5114385;28;19908;-71
2021/09/10 06:34:21;;;;;;;;;;;15.70;99.90;;;;;;5114551;28;19908;-71
2021/09/10 06:36:47;;;;;;;;;;;15.80;99.90;;;;;;5114083;28;19908;-71
2021/09/10 06:39:13;;;;;;;;;;;16.00;99.90;;;;;;5114363;28;19931;-71
2021/09/10 06:41:39;;;;;;;;;;;16.10;99.90;;;;;;5114159;28;19974;-71
2021/09/10 06:44:04;;;;;;;;;;;16.40;99.90;;;;;;5110816;28;19908;-71
2021/09/10 06:46:30;;;;;;;;;;;16.70;99.90;;;;;;5113284;28;19916;-70
2021/09/10 06:48:55;;;;;;;;;;;17.00;99.90;;;;;;5113648;28;20002;-71
2021/09/10 06:51:21;;;;;;;;;;;17.40;99.90;;;;;;5114066;28;19920;-71
2021/09/10 06:53:46;;;;;;;;;;;17.80;99.90;;;;;;5113972;28;20441;-71
2021/09/10 06:56:12;;;;;;;;;;;18.20;99.90;;;;;;5113514;28;19939;-71
2021/09/10 06:58:38;;;;;;;;;;;18.30;99.90;;;;;;5113928;28;20350;-71
2021/09/10 07:01:05;;;;;;;;;;;18.50;99.90;;;;;;5098371;28;19908;-71
2021/09/10 07:03:31;;;;;;;;;;;18.70;99.90;;;;;;5092951;28;19999;-71
2021/09/10 07:05:56;;;;;;;;;;;18.80;99.90;;;;;;5103477;28;20340;-70
2021/09/10 07:08:22;;;;;;;;;;;19.00;99.90;;;;;;5105874;28;19908;-71
2021/09/10 07:10:47;;;;;;;;;;;19.20;99.90;;;;;;5113273;28;20311;-71
2021/09/10 07:13:13;;;;;;;;;;;19.20;99.90;;;;;;5111357;28;19960;-70
2021/09/10 07:15:39;;;;;;;;;;;19.20;99.90;;;;;;5107934;28;19912;-70
2021/09/10 07:18:05;;;;;;;;;;;19.30;99.90;;;;;;5112977;28;19915;-69
2021/09/10 07:20:30;;;;;;;;;;;19.60;99.90;;;;;;5113311;28;19907;-70
2021/09/10 07:22:56;;;;;;;;;;;19.80;99.90;;;;;;5113114;28;19958;-70
2021/09/10 07:25:21;;;;;;;;;;;19.90;99.90;;;;;;5107811;28;19915;-70
2021/09/10 07:27:47;;;;;;;;;;;19.80;99.90;;;;;;5109852;28;19908;-70
2021/09/10 07:30:12;;;;;;;;;;;19.80;99.90;;;;;;5109143;28;19908;-70
2021/09/10 07:32:38;;;;;;;;;;;19.90;99.90;;;;;;5108378;28;20303;-70
2021/09/10 07:35:04;;;;;;;;;;;20.30;99.90;;;;;;5112811;28;19907;-70
2021/09/10 07:37:30;;;;;;;;;;;20.60;99.90;;;;;;5112640;28;19914;-70
2021/09/10 07:39:56;;;;;;;;;;;21.80;99.90;;;;;;5112575;28;19999;-70
2021/09/10 07:42:22;;;;;;;;;;;22.30;99.90;;;;;;5112904;28;20392;-70
2021/09/10 07:44:47;;;;;;;;;;;21.70;99.90;;;;;;5109425;28;19957;-69
2021/09/10 07:47:13;;;;;;;;;;;21.20;99.90;;;;;;5112090;28;19923;-70
2021/09/10 07:49:38;;;;;;;;;;;20.90;99.90;;;;;;5113057;28;19927;-70
2021/09/10 07:52:04;;;;;;;;;;;20.90;99.90;;;;;;5112565;28;20309;-70
2021/09/10 07:54:29;;;;;;;;;;;20.70;99.90;;;;;;5112517;28;20477;-70
2021/09/10 07:56:57;;;;;;;;;;;20.60;99.90;;;;;;5111892;28;20340;-70
2021/09/10 07:59:22;;;;;;;;;;;20.70;99.90;;;;;;5111937;28;19911;-70
2021/09/10 08:01:48;;;;;;;;;;;20.60;99.90;;;;;;5104681;28;19972;-70
2021/09/10 08:04:13;;;;;;;;;;;20.50;99.90;;;;;;5112624;28;20276;-70
2021/09/10 08:06:39;;;;;;;;;;;20.30;99.90;;;;;;5112769;28;19908;-70
2021/09/10 08:09:04;;;;;;;;;;;20.50;99.90;;;;;;5095431;28;19961;-71
2021/09/10 08:11:33;;;;;;;;;;;20.70;99.90;;;;;;5112107;28;20273;-70
2021/09/10 08:13:58;;;;;;;;;;;21.20;99.90;;;;;;5109152;28;20540;-71
2021/09/10 08:16:24;;;;;;;;;;;21.90;99.90;;;;;;5111836;28;20006;-71
2021/09/10 08:18:50;;;;;;;;;;;22.00;99.90;;;;;;5112411;28;19968;-70
2021/09/10 08:21:15;;;;;;;;;;;22.70;99.90;;;;;;5112178;28;20365;-71
2021/09/10 08:23:41;;;;;;;;;;;23.90;99.90;;;;;;5112109;28;19908;-71
2021/09/10 08:26:06;;;;;;;;;;;25.20;99.90;;;;;;5111882;28;20280;-72
2021/09/10 08:28:32;;;;;;;;;;;26.30;99.90;;;;;;5112183;28;19961;-72
2021/09/10 08:30:57;;;;;;;;;;;27.30;99.90;;;;;;5108900;28;20312;-72
2021/09/10 08:33:24;;;;;;;;;;;27.80;99.90;;;;;;5111826;28;20012;-72
2021/09/10 08:35:49;;;;;;;;;;;27.60;99.90;;;;;;5112580;28;19915;-72
2021/09/10 08:38:15;;;;;;;;;;;28.20;99.90;;;;;;5111470;28;19908;-72
2021/09/10 08:40:43;;;;;;;;;;;28.30;99.60;;;;;;5111874;28;19934;-71
2021/09/10 08:43:09;;;;;;;;;;;26.80;99.90;;;;;;5112248;28;19911;-71
2021/09/10 08:45:34;;;;;;;;;;;24.20;99.90;;;;;;5108850;28;19915;-72
2021/09/10 08:48:00;;;;;;;;;;;22.80;99.90;;;;;;5111419;28;19912;-72
2021/09/10 08:50:25;;;;;;;;;;;22.20;99.90;;;;;;5111545;28;20380;-71
2021/09/10 08:52:51;;;;;;;;;;;21.90;99.90;;;;;;5111366;28;20428;-72
2021/09/10 08:55:17;;;;;;;;;;;21.70;99.90;;;;;;5111712;28;19911;-72
2021/09/10 08:57:50;;;;;;;;;;;21.70;99.90;;;;;;5111525;28;20403;-71
2021/09/10 09:00:16;;;;;;;;;;;21.80;99.90;;;;;;5111524;28;19908;-71
2021/09/10 09:02:42;;;;;;;;;;;22.10;99.90;;;;;;5111653;28;19915;-71
2021/09/10 09:05:07;;;;;;;;;;;22.10;99.90;;;;;;5111710;28;19908;-70
2021/09/10 09:07:33;;;;;;;;;;;22.30;99.90;;;;;;5102249;28;19914;-71
2021/09/10 09:09:59;;;;;;;;;;;22.20;99.90;;;;;;5090725;28;19912;-71
2021/09/10 09:12:32;;;;;;;;;;;22.20;99.90;;;;;;5094950;28;20292;-71
2021/09/10 09:14:58;;;;;;;;;;;22.00;99.90;;;;;;5093740;28;19965;-71
2021/09/10 09:17:24;;;;;;;;;;;21.90;99.90;;;;;;5094987;28;19915;-71
2021/09/10 09:20:08;;;;;;;;;;;21.90;99.90;;;;;;5095411;28;19908;-71
2021/09/10 09:22:50;;;;;;;;;;;21.90;99.90;;;;;;5095322;28;20357;-71
2021/09/10 09:25:17;;;;;;;;;;;21.90;99.90;;;;;;5095519;28;19915;-71
2021/09/10 09:27:42;;;;;;;;;;;22.00;99.90;;;;;;5095852;28;20268;-71
2021/09/10 09:30:08;;;;;;;;;;;22.30;99.90;;;;;;5091739;28;19912;-70
2021/09/10 09:32:47;;;;;;;;;;;22.40;99.90;;;;;;5094704;28;19912;-71
2021/09/10 09:35:12;;;;;;;;;;;22.20;99.90;;;;;;5095185;28;19909;-70
2021/09/10 09:37:38;;;;;;;;;;;22.60;99.90;;;;;;5095133;28;20364;-70
2021/09/10 09:40:04;;;;;;;;;;;23.60;99.90;;;;;;5094867;28;20159;-70
2021/09/10 09:42:31;;;;;;;;;;;23.20;99.90;;;;;;5094971;28;19908;-70
2021/09/10 09:45:09;;;;;;;;;;;22.80;99.90;;;;;;5092917;28;19928;-70
2021/09/10 09:47:35;;;;;;;;;;;22.80;99.90;;;;;;5112755;28;19915;-71
2021/09/10 09:50:04;;;;;;;;;;;22.70;99.90;;;;;;5115046;28;19943;-71
2021/09/10 09:52:31;;;;;;;;;;;22.80;99.90;;;;;;5115042;28;19911;-71
2021/09/10 09:54:56;;;;;;;;;;;23.00;99.90;;;;;;5115458;28;20201;-71
2021/09/10 09:57:22;;;;;;;;;;;23.00;99.90;;;;;;5114722;28;19912;-71
2021/09/10 09:59:48;;;;;;;;;;;23.40;99.90;;;;;;5115010;28;19915;-71
2021/09/10 10:02:13;;;;;;;;;;;24.00;99.90;;;;;;5108368;28;20265;-71
2021/09/10 10:04:38;;;;;;;;;;;24.40;99.90;;;;;;5114827;28;19969;-71
2021/09/10 10:07:04;;;;;;;;;;;24.60;99.90;;;;;;5106860;28;19917;-72
2021/09/10 10:09:31;;;;;;;;;;;24.60;99.90;;;;;;5092715;28;19960;-72
2021/09/10 10:12:00;;;;;;;;;;;26.20;99.90;;;;;;5115172;28;20312;-71
2021/09/10 10:14:33;;;;;;;;;;;27.10;99.90;;;;;;5111326;28;19982;-71
2021/09/10 10:17:01;;;;;;;;;;;26.20;99.90;;;;;;5114131;28;20275;-72
2021/09/10 10:19:33;;;;;;;;;;;24.80;99.90;;;;;;5114659;28;20327;-71
2021/09/10 10:22:00;;;;;;;;;;;25.80;99.90;;;;;;5113904;28;19918;-72
2021/09/10 10:24:44;;;;;;;;;;;29.30;99.10;;;;;;5113951;28;19915;-71
2021/09/10 10:27:30;;;;;;;;;;;31.00;96.60;;;;;;5114175;28;19919;-70
2021/09/10 10:29:56;;;;;;;;;;;30.40;95.60;;;;;;5111390;28;19959;-71
2021/09/10 10:32:31;;;;;;;;;;;31.90;94.30;;;;;;5114139;28;19959;-70
2021/09/10 10:35:12;;;;;;;;;;;29.40;95.80;;;;;;5114238;28;19949;-71
2021/09/10 10:37:38;;;;;;;;;;;31.00;94.30;;;;;;5114090;28;20375;-71
2021/09/10 10:40:23;;;;;;;;;;;30.30;96.00;;;;;;5114620;28;19951;-71
2021/09/10 10:42:49;;;;;;;;;;;29.60;95.20;;;;;;5114549;28;20337;-71
2021/09/10 10:45:14;;;;;;;;;;;27.30;97.60;;;;;;5110843;28;20365;-71
2021/09/10 10:47:40;;;;;;;;;;;25.20;99.60;;;;;;5113552;28;19919;-71
2021/09/10 10:50:25;;;;;;;;;;;24.40;99.90;;;;;;5114173;28;19998;-71
2021/09/10 10:52:55;;;;;;;;;;;24.60;99.90;;;;;;5113699;28;19916;-70
2021/09/10 10:55:25;;;;;;;;;;;24.60;99.90;;;;;;5113912;28;19907;-70
2021/09/10 10:57:51;;;;;;;;;;;25.00;99.90;;;;;;5113322;28;19908;-71
2021/09/10 11:00:30;;;;;;;;;;;26.80;99.90;;;;;;5114002;28;20389;-70
2021/09/10 11:03:14;;;;;;;;;;;27.90;98.10;;;;;;5091751;28;19914;-70
2021/09/10 11:05:40;;;;;;;;;;;30.10;96.50;;;;;;5093368;28;20396;-70
2021/09/10 11:08:06;;;;;;;;;;;31.40;93.00;;;;;;5091528;28;19909;-71
2021/09/10 11:10:32;;;;;;;;;;;32.00;91.40;;;;;;5092745;28;19911;-70
2021/09/10 11:12:58;;;;;;;;;;;31.20;93.20;;;;;;5093139;28;19912;-70
2021/09/10 11:15:33;;;;;;;;;;;31.50;91.50;;;;;;5091306;28;19908;-70
2021/09/10 11:18:02;;;;;;;;;;;32.70;92.60;;;;;;5091334;28;20025;-71
2021/09/10 11:20:37;;;;;;;;;;;33.30;90.20;;;;;;5091623;28;19952;-71
2021/09/10 11:23:04;;;;;;;;;;;33.60;89.10;;;;;;5092608;28;19948;-71
2021/09/10 11:25:30;;;;;;;;;;;31.60;90.10;;;;;;5092987;28;20382;-70
2021/09/10 11:27:56;;;;;;;;;;;29.20;94.80;;;;;;5092685;28;20012;-70
2021/09/10 11:30:22;;;;;;;;;;;26.70;94.80;;;;;;5091939;28;19908;-70
2021/09/10 11:32:55;;;;;;;;;;;26.30;97.70;;;;;;5092830;28;19994;-70
2021/09/10 11:35:22;;;;;;;;;;;27.40;96.10;;;;;;5092537;28;20322;-70
2021/09/10 11:37:56;;;;;;;;;;;28.00;94.20;;;;;;5092376;28;19914;-71
2021/09/10 11:40:32;;;;;;;;;;;29.30;95.00;;;;;;5091323;28;20003;-71
2021/09/10 11:43:17;;;;;;;;;;;30.70;93.30;;;;;;5092602;28;19908;-70
2021/09/10 11:45:43;;;;;;;;;;;29.50;93.40;;;;;;5093091;28;20018;-70
2021/09/10 11:48:09;;;;;;;;;;;29.20;95.20;;;;;;5112743;28;20035;-70
2021/09/10 11:50:45;;;;;;;;;;;28.30;93.70;;;;;;5112789;28;20372;-70
2021/09/10 11:53:19;;;;;;;;;;;27.20;96.20;;;;;;5112936;28;20006;-73
2021/09/10 11:55:54;;;;;;;;;;;26.00;96.90;;;;;;5113650;28;20272;-70
2021/09/10 11:58:29;;;;;;;;;;;26.40;97.50;;;;;;5112764;28;19908;-70
2021/09/10 12:01:11;;;;;;;;;;;26.50;97.30;;;;;;5102188;28;19961;-71
2021/09/10 12:03:44;;;;;;;;;;;26.30;98.70;;;;;;5112546;28;19987;-71
2021/09/10 12:06:10;;;;;;;;;;;26.60;98.70;;;;;;5112366;28;19914;-70
2021/09/10 12:08:35;;;;;;;;;;;26.10;97.50;;;;;;5102607;28;19912;-70
2021/09/10 12:11:18;;;;;;;;;;;26.10;98.30;;;;;;5095227;28;19912;-70
2021/09/10 12:13:44;;;;;;;;;;;25.80;98.80;;;;;;5108897;28;20337;-70
2021/09/10 12:16:16;;;;;;;;;;;26.00;99.30;;;;;;5111980;28;19998;-71
2021/09/10 12:18:58;;;;;;;;;;;25.60;98.70;;;;;;5112372;28;19976;-70
2021/09/10 12:21:28;;;;;;;;;;;25.90;99.70;;;;;;5112011;28;19918;-70
2021/09/10 12:24:09;;;;;;;;;;;25.80;98.50;;;;;;5112331;28;19907;-70
2021/09/10 12:26:47;;;;;;;;;;;25.10;99.90;;;;;;5111834;28;19907;-70
2021/09/10 12:29:18;;;;;;;;;;;25.30;99.90;;;;;;5112191;28;19915;-70
2021/09/10 12:31:44;;;;;;;;;;;25.60;99.90;;;;;;5108635;28;19907;-70
2021/09/10 12:34:09;;;;;;;;;;;25.60;99.70;;;;;;5111912;28;19956;-70
2021/09/10 12:36:35;;;;;;;;;;;25.60;98.80;;;;;;5111449;28;19908;-70
2021/09/10 12:39:00;;;;;;;;;;;25.50;98.40;;;;;;5111808;28;19968;-70
2021/09/10 12:41:26;;;;;;;;;;;25.10;99.50;;;;;;5093611;28;19908;-70
2021/09/10 12:43:52;;;;;;;;;;;25.10;99.90;;;;;;5108616;28;20462;-70
2021/09/10 12:46:17;;;;;;;;;;;25.30;99.00;;;;;;5110465;28;20384;-70
2021/09/10 12:48:43;;;;;;;;;;;25.20;99.90;;;;;;5093587;28;19907;-70
2021/09/10 12:51:08;;;;;;;;;;;25.10;99.90;;;;;;5111579;28;20024;-70
2021/09/10 12:53:35;;;;;;;;;;;25.00;99.70;;;;;;5111710;28;19954;-70
2021/09/10 12:56:00;;;;;;;;;;;25.10;99.70;;;;;;5093309;28;19912;-70
2021/09/10 12:58:26;;;;;;;;;;;25.00;99.90;;;;;;5111593;28;19908;-70
2021/09/10 13:00:51;;;;;;;;;;;24.70;99.90;;;;;;5093181;28;19911;-70
2021/09/10 13:03:17;;;;;;;;;;;24.90;99.90;;;;;;5111718;28;19908;-70
2021/09/10 13:05:42;;;;;;;;;;;24.50;99.90;;;;;;5111636;28;19954;-70
2021/09/10 13:08:08;;;;;;;;;;;24.20;99.90;;;;;;5101077;28;20391;-70
2021/09/10 13:10:34;;;;;;;;;;;24.10;99.90;;;;;;5111263;28;19907;-70
2021/09/10 13:12:59;;;;;;;;;;;24.20;99.90;;;;;;5111878;28;19920;-70
2021/09/10 13:15:25;;;;;;;;;;;24.30;99.90;;;;;;5108404;28;19908;-70
2021/09/10 13:17:51;;;;;;;;;;;23.90;99.90;;;;;;5111135;28;19915;-70
2021/09/10 13:20:16;;;;;;;;;;;23.60;99.90;;;;;;5111452;28;19915;-70
2021/09/10 13:22:42;;;;;;;;;;;23.40;99.90;;;;;;5111154;28;19915;-70
2021/09/10 13:25:07;;;;;;;;;;;23.20;99.90;;;;;;5106488;28;20303;-70
2021/09/10 13:27:33;;;;;;;;;;;23.20;99.90;;;;;;5109626;28;20328;-70
2021/09/10 13:29:59;;;;;;;;;;;23.20;99.90;;;;;;5109859;28;19912;-71
2021/09/10 13:32:24;;;;;;;;;;;23.10;99.90;;;;;;5111572;28;19915;-70
2021/09/10 13:34:50;;;;;;;;;;;22.90;99.90;;;;;;5111244;28;20344;-71
2021/09/10 13:37:15;;;;;;;;;;;22.70;99.90;;;;;;5111035;28;19961;-70
2021/09/10 13:39:45;;;;;;;;;;;22.80;99.90;;;;;;5111285;28;19908;-71
2021/09/10 13:42:10;;;;;;;;;;;22.90;99.90;;;;;;5111742;28;19995;-70
2021/09/10 13:44:36;;;;;;;;;;;23.10;99.90;;;;;;5107645;28;20086;-70
2021/09/10 13:47:01;;;;;;;;;;;23.30;99.90;;;;;;5110504;28;19969;-70
2021/09/10 13:49:27;;;;;;;;;;;23.60;99.90;;;;;;5092924;28;19908;-70
2021/09/10 13:51:53;;;;;;;;;;;23.90;99.90;;;;;;5111036;28;19912;-70
2021/09/10 13:54:19;;;;;;;;;;;23.70;99.90;;;;;;5111335;28;20336;-70
2021/09/10 13:56:45;;;;;;;;;;;23.40;99.90;;;;;;5110773;28;19911;-70
2021/09/10 13:59:10;;;;;;;;;;;23.20;99.90;;;;;;5114028;28;20292;-70
2021/09/10 14:01:37;;;;;;;;;;;23.20;99.90;;;;;;5114753;28;19915;-70
2021/09/10 14:04:03;;;;;;;;;;;23.40;99.90;;;;;;5114984;28;20065;-70
2021/09/10 14:06:29;;;;;;;;;;;23.60;99.90;;;;;;5114390;28;20330;-70
2021/09/10 14:08:55;;;;;;;;;;;23.50;99.90;;;;;;5114933;28;19907;-70
2021/09/10 14:11:20;;;;;;;;;;;23.40;99.90;;;;;;5114665;28;20014;-70
2021/09/10 14:13:46;;;;;;;;;;;23.10;99.90;;;;;;5111211;28;19919;-71